createdAt,value
2022-11-13T00:15:26.596Z,19.00
2022-11-13T00:18:08.695Z,17.50
2022-11-13T00:24:35.262Z,17.50
2022-11-13T00:28:36.081Z,14.00
2022-11-13T00:29:51.215Z,14.50
2022-11-13T00:36:32.687Z,16.50
2022-11-13T00:39:03.429Z,17.25
2022-11-13T00:45:38.607Z,15.25
2022-11-13T00:52:07.929Z,13.00
2022-11-13T00:54:49.791Z,16.50
2022-11-13T00:58:39.908Z,12.00
2022-11-13T00:59:48.429Z,13.50
2022-11-13T01:09:10.492Z,9.50
2022-11-13T01:11:36.213Z,11.50
2022-11-13T01:12:44.709Z,12.50
2022-11-13T01:14:04.113Z,12.50
2022-11-13T01:18:10.704Z,11.00
2022-11-13T01:19:13.721Z,11.50
2022-11-13T01:24:26.172Z,14.50
2022-11-13T01:25:35.923Z,10.75
2022-11-13T01:29:28.155Z,10.50
2022-11-13T01:30:41.949Z,11.25
2022-11-13T01:31:49.656Z,10.00
2022-11-13T01:32:53.468Z,9.50
2022-11-13T01:34:01.829Z,8.50
2022-11-13T01:35:15.460Z,9.25
2022-11-13T01:36:24.732Z,9.50
2022-11-13T01:37:34.170Z,10.50
2022-11-13T01:38:49.755Z,10.75
2022-11-13T01:41:19.066Z,10.00
2022-11-13T01:42:20.365Z,9.00
2022-11-13T01:55:33.255Z,8.50
2022-11-13T01:59:24.513Z,9.00
2022-11-13T02:00:28.005Z,8.75
2022-11-13T02:01:31.972Z,6.75
2022-11-13T02:02:35.463Z,8.25
2022-11-13T02:03:40.151Z,8.00
2022-11-13T02:04:43.981Z,9.00
2022-11-13T02:05:55.324Z,8.00
2022-11-13T02:06:58.900Z,6.50
2022-11-13T02:10:43.054Z,8.75
2022-11-13T02:11:46.482Z,6.50
2022-11-13T02:12:49.897Z,6.50
2022-11-13T02:13:59.323Z,6.00
2022-11-13T02:15:02.805Z,6.00
2022-11-13T02:16:05.634Z,6.50
2022-11-13T02:18:31.350Z,7.00
2022-11-13T02:20:56.383Z,6.25
2022-11-13T02:23:21.392Z,6.00
2022-11-13T02:24:32.537Z,8.00
2022-11-13T02:26:55.814Z,8.75
2022-11-13T02:28:00.603Z,9.00
2022-11-13T02:29:08.820Z,8.50
2022-11-13T02:30:15.661Z,8.75
2022-11-13T02:31:16.735Z,8.00
2022-11-13T02:32:20.735Z,8.50
2022-11-13T02:33:23.709Z,8.50
2022-11-13T02:34:39.854Z,8.00
2022-11-13T02:35:43.518Z,8.50
2022-11-13T02:36:47.298Z,8.50
2022-11-13T02:37:52.205Z,8.00
2022-11-13T02:38:55.591Z,6.50
2022-11-13T02:39:59.204Z,5.75
2022-11-13T02:41:09.829Z,7.00
2022-11-13T02:42:12.971Z,7.50
2022-11-13T02:43:18.258Z,7.00
2022-11-13T02:44:22.889Z,5.50
2022-11-13T03:05:53.073Z,3.00
2022-11-13T03:15:31.101Z,2.50
2022-11-13T03:20:48.230Z,4.50
2022-11-13T03:22:01.426Z,4.50
2022-11-13T03:28:31.514Z,3.00
2022-11-13T03:29:35.794Z,4.00
2022-11-13T03:30:39.808Z,3.50
2022-11-13T03:31:45.247Z,3.75
2022-11-13T03:32:48.111Z,3.50
2022-11-13T03:33:51.604Z,4.50
2022-11-13T03:39:04.711Z,3.50
2022-11-13T03:43:03.754Z,5.00
2022-11-13T03:45:29.920Z,4.50
2022-11-13T03:50:45.234Z,2.50
2022-11-13T03:51:48.274Z,3.00
2022-11-13T03:54:13.862Z,4.50
2022-11-13T03:55:24.984Z,2.25
2022-11-13T04:00:39.449Z,4.50
2022-11-13T04:01:48.078Z,5.00
2022-11-13T04:03:00.625Z,3.00
2022-11-13T04:04:11.054Z,5.00
2022-11-13T04:05:21.574Z,6.50
2022-11-13T04:06:22.043Z,2.00
2022-11-13T04:07:26.350Z,2.50
2022-11-13T04:08:40.938Z,3.00
2022-11-13T04:09:51.762Z,3.25
2022-11-13T04:10:56.175Z,3.50
2022-11-13T04:11:59.628Z,4.00
2022-11-13T04:13:04.789Z,4.50
2022-11-13T04:15:28.870Z,3.50
2022-11-13T04:16:33.372Z,3.50
2022-11-13T04:17:41.332Z,4.25
2022-11-13T04:20:10.849Z,3.75
2022-11-13T04:22:39.613Z,3.00
2022-11-13T04:23:48.993Z,2.00
2022-11-13T04:24:54.970Z,3.00
2022-11-13T04:26:03.126Z,4.50
2022-11-13T04:27:09.635Z,4.00
2022-11-13T04:28:14.407Z,4.50
2022-11-13T04:32:09.939Z,4.50
2022-11-13T04:33:14.846Z,4.00
2022-11-13T04:34:19.974Z,3.50
2022-11-13T04:35:23.482Z,3.75
2022-11-13T04:38:03.048Z,4.00
2022-11-13T04:39:07.669Z,3.75
2022-11-13T04:40:12.253Z,4.50
2022-11-13T04:41:15.594Z,5.00
2022-11-13T04:42:19.344Z,2.50
2022-11-13T04:43:38.315Z,2.25
2022-11-13T04:44:47.411Z,3.00
2022-11-13T04:45:52.128Z,3.50
2022-11-13T04:51:08.552Z,2.50
2022-11-13T05:02:04.649Z,3.25
2022-11-13T05:12:49.989Z,2.00
2022-11-13T05:13:55.639Z,2.00
2022-11-13T05:21:50.968Z,2.50
2022-11-13T05:22:57.011Z,2.00
2022-11-13T05:26:41.881Z,2.25
2022-11-13T05:27:48.963Z,1.50
2022-11-13T05:28:55.632Z,1.75
2022-11-13T05:31:20.413Z,1.25
2022-11-13T05:32:37.870Z,1.50
2022-11-13T05:33:46.640Z,1.50
2022-11-13T05:36:13.345Z,1.00
2022-11-13T05:37:16.813Z,1.50
2022-11-13T05:39:41.162Z,1.75
2022-11-13T05:40:44.848Z,2.00
2022-11-13T05:41:48.345Z,1.00
2022-11-13T05:43:02.148Z,2.25
2022-11-13T05:44:04.887Z,2.00
2022-11-13T05:45:13.763Z,1.50
2022-11-13T05:46:19.501Z,2.00
2022-11-13T05:47:25.249Z,0.50
2022-11-13T05:48:33.651Z,1.25
2022-11-13T05:49:36.733Z,2.00
2022-11-13T05:50:42.985Z,1.75
2022-11-13T05:52:01.147Z,1.50
2022-11-13T05:53:06.354Z,1.50
2022-11-13T05:54:12.114Z,1.75
2022-11-13T05:55:28.354Z,1.00
2022-11-13T05:56:31.458Z,2.00
2022-11-13T05:57:36.811Z,2.00
2022-11-13T06:00:09.789Z,2.25
2022-11-13T06:01:13.266Z,1.00
2022-11-13T06:05:01.026Z,2.50
2022-11-13T06:06:09.712Z,2.50
2022-11-13T06:07:17.951Z,2.50
2022-11-13T06:08:23.860Z,1.50
2022-11-13T06:09:31.130Z,1.00
2022-11-13T06:11:55.319Z,1.00
2022-11-13T06:15:58.280Z,2.50
2022-11-13T06:17:07.127Z,2.00
2022-11-13T06:18:15.230Z,2.00
2022-11-13T06:19:21.691Z,3.50
2022-11-13T06:20:29.650Z,3.00
2022-11-13T06:21:33.213Z,2.25
2022-11-13T06:22:36.452Z,2.25
2022-11-13T06:23:40.270Z,1.50
2022-11-13T06:24:45.081Z,0.75
2022-11-13T06:25:59.141Z,2.00
2022-11-13T06:28:22.673Z,2.00
2022-11-13T06:30:50.039Z,2.50
2022-11-13T06:33:19.379Z,2.00
2022-11-13T06:34:29.439Z,3.00
2022-11-13T06:35:32.562Z,2.25
2022-11-13T06:36:38.670Z,1.00
2022-11-13T06:37:43.742Z,1.75
2022-11-13T06:38:47.557Z,2.00
2022-11-13T06:39:51.235Z,2.50
2022-11-13T06:42:15.419Z,2.00
2022-11-13T06:43:19.263Z,2.25
2022-11-13T06:45:46.589Z,2.25
2022-11-13T06:46:52.793Z,2.50
2022-11-13T06:50:38.318Z,2.50
2022-11-13T06:51:50.904Z,2.50
2022-11-13T06:52:55.133Z,2.25
2022-11-13T06:55:21.041Z,1.25
2022-11-13T06:56:24.421Z,2.25
2022-11-13T06:57:28.563Z,2.00
2022-11-13T06:59:53.360Z,2.50
2022-11-13T07:01:01.686Z,3.00
2022-11-13T07:02:05.121Z,1.25
2022-11-13T07:03:08.499Z,2.20
2022-11-13T07:04:12.706Z,2.75
2022-11-13T07:05:20.134Z,3.00
2022-11-13T07:06:24.449Z,2.00
2022-11-13T07:07:28.261Z,1.50
2022-11-13T07:08:33.835Z,1.50
2022-11-13T07:09:38.961Z,1.75
2022-11-13T07:10:44.713Z,2.50
2022-11-13T07:11:55.880Z,2.50
2022-11-13T07:12:59.358Z,1.50
2022-11-13T07:14:04.280Z,2.25
2022-11-13T07:15:08.271Z,2.50
2022-11-13T07:16:16.978Z,2.50
2022-11-13T07:17:16.487Z,3.00
2022-11-13T07:18:23.853Z,2.25
2022-11-13T07:19:25.098Z,2.00
2022-11-13T07:20:28.601Z,2.00
2022-11-13T07:21:32.628Z,1.50
2022-11-13T07:22:35.560Z,1.75
2022-11-13T07:23:40.180Z,2.00
2022-11-13T07:24:43.371Z,2.00
2022-11-13T07:25:47.329Z,3.00
2022-11-13T07:26:50.951Z,1.75
2022-11-13T07:27:54.355Z,2.00
2022-11-13T07:28:57.542Z,2.00
2022-11-13T07:30:03.641Z,1.50
2022-11-13T07:31:06.150Z,2.00
2022-11-13T07:32:09.731Z,2.25
2022-11-13T07:33:12.823Z,2.75
2022-11-13T07:34:19.591Z,2.25
2022-11-13T07:35:22.670Z,1.50
2022-11-13T07:36:25.944Z,2.80
2022-11-13T07:37:30.142Z,3.00
2022-11-13T07:38:44.903Z,2.50
2022-11-13T07:39:48.406Z,2.00
2022-11-13T07:40:51.470Z,1.00
2022-11-13T07:41:55.269Z,2.00
2022-11-13T07:42:59.265Z,2.50
2022-11-13T07:44:05.447Z,3.00
2022-11-13T07:45:18.152Z,2.75
2022-11-13T07:46:26.153Z,2.50
2022-11-13T07:47:29.910Z,1.50
2022-11-13T07:48:34.122Z,3.25
2022-11-13T07:49:37.711Z,2.75
2022-11-13T07:50:43.774Z,1.75
2022-11-13T07:51:47.066Z,3.50
2022-11-13T07:52:52.487Z,2.50
2022-11-13T07:53:56.512Z,3.00
2022-11-13T07:55:03.991Z,4.00
2022-11-13T07:56:07.461Z,3.50
2022-11-13T07:57:10.633Z,3.75
2022-11-13T07:58:19.344Z,3.50
2022-11-13T07:59:23.151Z,3.00
2022-11-13T08:00:26.941Z,3.00
2022-11-13T08:01:31.310Z,3.25
2022-11-13T08:02:35.279Z,3.25
2022-11-13T08:03:38.843Z,3.25
2022-11-13T08:04:42.528Z,2.75
2022-11-13T08:05:45.672Z,3.50
2022-11-13T08:06:49.145Z,4.00
2022-11-13T08:07:52.297Z,4.25
2022-11-13T08:08:55.263Z,3.60
2022-11-13T08:10:00.626Z,4.50
2022-11-13T08:11:17.236Z,4.50
2022-11-13T08:12:21.919Z,3.75
2022-11-13T08:13:25.406Z,3.00
2022-11-13T08:14:28.486Z,3.50
2022-11-13T08:15:31.661Z,3.75
2022-11-13T08:16:39.151Z,4.50
2022-11-13T08:17:42.462Z,4.25
2022-11-13T08:18:46.531Z,4.50
2022-11-13T08:19:52.274Z,4.25
2022-11-13T08:20:59.165Z,4.00
2022-11-13T08:22:04.783Z,4.00
2022-11-13T08:23:08.292Z,3.25
2022-11-13T08:24:20.856Z,4.00
2022-11-13T08:25:23.956Z,4.00
2022-11-13T08:26:43.216Z,3.75
2022-11-13T08:29:07.344Z,4.50
2022-11-13T08:30:12.251Z,4.25
2022-11-13T08:31:17.724Z,5.00
2022-11-13T08:32:24.610Z,4.50
2022-11-13T08:33:31.341Z,4.00
2022-11-13T08:34:35.183Z,5.50
2022-11-13T08:35:38.771Z,5.50
2022-11-13T08:36:41.851Z,5.00
2022-11-13T08:37:44.934Z,4.25
2022-11-13T08:38:48.316Z,4.50
2022-11-13T08:39:53.242Z,4.00
2022-11-13T08:40:57.240Z,4.00
2022-11-13T08:42:01.956Z,6.00
2022-11-13T08:43:05.527Z,4.00
2022-11-13T08:44:12.454Z,4.25
2022-11-13T08:45:17.771Z,3.50
2022-11-13T08:46:21.032Z,4.50
2022-11-13T08:47:29.345Z,4.50
2022-11-13T08:48:29.797Z,5.00
2022-11-13T08:49:37.542Z,5.25
2022-11-13T08:50:41.484Z,5.50
2022-11-13T08:51:44.936Z,5.50
2022-11-13T08:52:48.962Z,6.00
2022-11-13T08:53:52.725Z,6.75
2022-11-13T08:54:56.642Z,5.50
2022-11-13T08:56:00.343Z,4.75
2022-11-13T08:57:06.132Z,4.50
2022-11-13T08:58:08.254Z,3.25
2022-11-13T08:59:12.031Z,5.50
2022-11-13T09:00:15.415Z,6.00
2022-11-13T09:01:19.636Z,5.00
2022-11-13T09:02:22.891Z,5.00
2022-11-13T09:03:26.120Z,5.25
2022-11-13T09:04:29.150Z,5.50
2022-11-13T09:05:32.443Z,4.75
2022-11-13T09:06:35.930Z,5.00
2022-11-13T09:07:39.514Z,5.00
2022-11-13T09:08:43.331Z,5.50
2022-11-13T09:09:47.834Z,5.75
2022-11-13T09:10:52.348Z,5.25
2022-11-13T09:11:55.732Z,3.50
2022-11-13T09:12:59.336Z,4.50
2022-11-13T09:14:02.807Z,5.00
2022-11-13T09:15:06.507Z,5.00
2022-11-13T09:16:10.914Z,4.50
2022-11-13T09:17:15.444Z,4.00
2022-11-13T09:18:18.927Z,4.00
2022-11-13T09:19:22.507Z,4.00
2022-11-13T09:20:26.041Z,4.00
2022-11-13T09:21:30.104Z,4.00
2022-11-13T09:22:34.109Z,4.50
2022-11-13T09:23:37.490Z,3.00
2022-11-13T09:24:41.488Z,3.50
2022-11-13T09:25:45.291Z,4.00
2022-11-13T09:26:50.619Z,4.50
2022-11-13T09:27:54.516Z,4.50
2022-11-13T09:28:58.107Z,3.50
2022-11-13T09:30:08.046Z,4.00
2022-11-13T09:31:11.225Z,4.00
2022-11-13T09:32:14.412Z,3.50
2022-11-13T09:33:17.909Z,3.50
2022-11-13T09:34:21.191Z,4.75
2022-11-13T09:35:24.384Z,5.00
2022-11-13T09:36:27.992Z,5.00
2022-11-13T09:37:31.957Z,4.50
2022-11-13T09:38:35.040Z,4.00
2022-11-13T09:39:38.421Z,3.50
2022-11-13T09:40:41.613Z,4.00
2022-11-13T09:41:44.764Z,4.25
2022-11-13T09:42:48.688Z,4.60
2022-11-13T09:43:56.573Z,4.75
2022-11-13T09:44:56.484Z,5.50
2022-11-13T09:45:59.994Z,3.75
2022-11-13T09:47:03.404Z,3.50
2022-11-13T09:48:06.656Z,4.50
2022-11-13T09:49:10.855Z,4.50
2022-11-13T09:50:14.874Z,4.75
2022-11-13T09:51:18.471Z,3.75
2022-11-13T09:52:24.899Z,4.50
2022-11-13T09:53:28.184Z,4.25
2022-11-13T09:54:34.643Z,3.50
2022-11-13T09:55:39.057Z,4.50
2022-11-13T09:56:42.342Z,5.25
2022-11-13T09:57:45.931Z,4.25
2022-11-13T09:58:49.111Z,4.50
2022-11-13T09:59:53.323Z,5.75
2022-11-13T10:00:57.174Z,5.00
2022-11-13T10:02:00.305Z,3.00
2022-11-13T10:03:03.590Z,3.50
2022-11-13T10:04:08.884Z,5.25
2022-11-13T10:05:12.311Z,5.00
2022-11-13T10:06:15.892Z,4.50
2022-11-13T10:07:24.545Z,6.50
2022-11-13T10:08:29.833Z,7.50
2022-11-13T10:09:32.814Z,6.75
2022-11-13T10:10:36.372Z,5.50
2022-11-13T10:11:39.902Z,6.50
2022-11-13T10:12:42.972Z,5.00
2022-11-13T10:13:46.563Z,5.00
2022-11-13T10:14:50.151Z,5.00
2022-11-13T10:15:53.460Z,5.00
2022-11-13T10:16:56.523Z,4.50
2022-11-13T10:17:59.939Z,5.00
2022-11-13T10:19:04.013Z,6.00
2022-11-13T10:20:07.292Z,5.00
2022-11-13T10:21:11.091Z,4.25
2022-11-13T10:22:32.048Z,4.50
2022-11-13T10:23:19.298Z,5.50
2022-11-13T10:24:23.091Z,6.00
2022-11-13T10:25:26.584Z,6.50
2022-11-13T10:26:32.449Z,7.50
2022-11-13T10:27:36.072Z,8.00
2022-11-13T10:28:55.779Z,7.00
2022-11-13T10:29:48.983Z,6.00
2022-11-13T10:30:49.896Z,6.00
2022-11-13T10:31:53.465Z,4.75
2022-11-13T10:32:56.643Z,5.50
2022-11-13T10:34:00.616Z,6.50
2022-11-13T10:35:03.840Z,6.50
2022-11-13T10:36:07.229Z,6.00
2022-11-13T10:37:10.527Z,6.25
2022-11-13T10:38:15.424Z,6.50
2022-11-13T10:39:18.504Z,4.00
2022-11-13T10:40:22.589Z,5.00
2022-11-13T10:41:26.301Z,5.50
2022-11-13T10:42:29.576Z,5.75
2022-11-13T10:43:33.121Z,7.00
2022-11-13T10:44:36.769Z,6.50
2022-11-13T10:45:39.939Z,5.00
2022-11-13T10:46:43.531Z,6.00
2022-11-13T10:48:03.879Z,5.00
2022-11-13T10:48:51.939Z,4.00
2022-11-13T10:49:55.222Z,5.50
2022-11-13T10:50:59.429Z,6.00
2022-11-13T10:52:05.700Z,5.25
2022-11-13T10:53:07.542Z,5.25
2022-11-13T10:54:10.923Z,3.50
2022-11-13T10:55:14.215Z,4.25
2022-11-13T10:56:18.220Z,6.00
2022-11-13T10:57:21.803Z,5.75
2022-11-13T10:58:25.600Z,6.00
2022-11-13T10:59:29.704Z,5.75
2022-11-13T11:00:33.699Z,6.50
2022-11-13T11:01:37.566Z,6.00
2022-11-13T11:02:41.412Z,5.50
2022-11-13T11:03:44.929Z,6.50
2022-11-13T11:04:48.774Z,6.50
2022-11-13T11:05:52.786Z,6.50
2022-11-13T11:07:19.093Z,7.00
2022-11-13T11:08:01.684Z,6.00
2022-11-13T11:09:05.142Z,6.00
2022-11-13T11:10:08.490Z,5.50
2022-11-13T11:11:11.891Z,6.75
2022-11-13T11:12:14.768Z,7.00
2022-11-13T11:13:18.243Z,6.50
2022-11-13T11:14:21.541Z,6.00
2022-11-13T11:15:25.007Z,7.00
2022-11-13T11:16:29.449Z,7.25
2022-11-13T11:17:32.655Z,8.00
2022-11-13T11:18:36.293Z,7.50
2022-11-13T11:19:39.781Z,8.00
2022-11-13T11:20:43.269Z,8.00
2022-11-13T11:21:46.600Z,6.50
2022-11-13T11:22:50.053Z,7.50
2022-11-13T11:23:56.052Z,7.50
2022-11-13T11:24:58.053Z,7.50
2022-11-13T11:26:01.429Z,7.50
2022-11-13T11:27:04.750Z,7.50
2022-11-13T11:28:08.214Z,8.00
2022-11-13T11:29:11.706Z,8.50
2022-11-13T11:30:15.084Z,9.00
2022-11-13T11:31:18.371Z,9.00
2022-11-13T11:32:21.748Z,9.00
2022-11-13T11:33:25.338Z,7.75
2022-11-13T11:34:28.947Z,7.00
2022-11-13T11:35:32.841Z,7.00
2022-11-13T11:36:36.317Z,9.00
2022-11-13T11:37:40.029Z,8.50
2022-11-13T11:38:43.511Z,8.50
2022-11-13T11:39:47.306Z,10.00
2022-11-13T11:40:52.343Z,9.50
2022-11-13T11:41:55.842Z,8.50
2022-11-13T11:43:02.390Z,8.50
2022-11-13T11:44:05.754Z,9.00
2022-11-13T11:45:09.777Z,8.00
2022-11-13T11:46:13.149Z,6.75
2022-11-13T11:47:16.641Z,5.25
2022-11-13T11:48:20.029Z,5.50
2022-11-13T11:49:23.329Z,8.50
2022-11-13T11:50:26.701Z,9.00
2022-11-13T11:51:30.641Z,8.50
2022-11-13T11:52:33.782Z,8.00
2022-11-13T11:53:37.271Z,6.00
2022-11-13T11:54:41.063Z,6.75
2022-11-13T11:55:44.349Z,7.50
2022-11-13T11:56:47.770Z,7.50
2022-11-13T11:57:50.920Z,8.50
2022-11-13T11:58:55.431Z,10.00
2022-11-13T11:59:59.273Z,8.75
2022-11-13T12:01:03.432Z,8.50
2022-11-13T12:02:07.431Z,9.00
2022-11-13T12:03:10.622Z,9.00
2022-11-13T12:04:14.412Z,7.00
2022-11-13T12:05:20.179Z,8.00
2022-11-13T12:06:22.316Z,7.50
2022-11-13T12:07:25.849Z,7.50
2022-11-13T12:08:29.563Z,8.00
2022-11-13T12:09:33.293Z,7.50
2022-11-13T12:10:36.692Z,7.00
2022-11-13T12:11:40.374Z,8.00
2022-11-13T12:12:43.756Z,8.00
2022-11-13T12:13:47.456Z,7.00
2022-11-13T12:14:50.955Z,7.50
2022-11-13T12:15:54.332Z,8.00
2022-11-13T12:16:57.923Z,6.00
2022-11-13T12:18:01.411Z,6.00
2022-11-13T12:19:04.907Z,7.50
2022-11-13T12:20:08.420Z,8.50
2022-11-13T12:21:11.976Z,7.50
2022-11-13T12:22:15.375Z,7.00
2022-11-13T12:23:19.158Z,7.25
2022-11-13T12:24:22.752Z,7.50
2022-11-13T12:25:26.147Z,6.75
2022-11-13T12:26:29.415Z,6.00
2022-11-13T12:27:33.218Z,5.75
2022-11-13T12:28:40.674Z,6.00
2022-11-13T12:29:40.927Z,6.50
2022-11-13T12:30:44.621Z,6.50
2022-11-13T12:31:48.706Z,5.50
2022-11-13T12:32:51.910Z,4.25
2022-11-13T12:33:59.935Z,3.50
2022-11-13T12:35:00.715Z,4.00
2022-11-13T12:36:04.235Z,5.00
2022-11-13T12:37:07.808Z,6.25
2022-11-13T12:38:11.401Z,6.25
2022-11-13T12:39:15.095Z,6.00
2022-11-13T12:40:18.488Z,6.00
2022-11-13T12:41:22.554Z,5.00
2022-11-13T12:42:26.548Z,4.50
2022-11-13T12:43:30.670Z,5.25
2022-11-13T12:44:34.863Z,3.75
2022-11-13T12:45:38.663Z,4.75
2022-11-13T12:46:42.251Z,6.00
2022-11-13T12:47:45.843Z,6.50
2022-11-13T12:48:49.649Z,6.00
2022-11-13T12:49:53.665Z,5.00
2022-11-13T12:50:57.231Z,4.50
2022-11-13T12:52:00.925Z,5.00
2022-11-13T12:53:04.723Z,5.50
2022-11-13T12:54:08.514Z,5.50
2022-11-13T12:55:13.030Z,6.00
2022-11-13T12:56:16.731Z,5.50
2022-11-13T12:57:22.635Z,6.00
2022-11-13T12:58:26.853Z,6.50
2022-11-13T12:59:31.952Z,6.00
2022-11-13T13:00:35.703Z,5.50
2022-11-13T13:01:39.938Z,5.00
2022-11-13T13:02:43.391Z,5.00
2022-11-13T13:03:46.981Z,6.25
2022-11-13T13:04:50.474Z,5.50
2022-11-13T13:05:54.985Z,5.00
2022-11-13T13:06:58.968Z,5.00
2022-11-13T13:08:05.176Z,5.00
2022-11-13T13:09:07.712Z,5.00
2022-11-13T13:10:14.371Z,5.50
2022-11-13T13:11:17.860Z,6.00
2022-11-13T13:12:21.771Z,5.00
2022-11-13T13:13:25.667Z,5.50
2022-11-13T13:14:29.554Z,5.50
2022-11-13T13:15:33.067Z,4.50
2022-11-13T13:16:44.484Z,5.00
2022-11-13T13:17:48.621Z,5.50
2022-11-13T13:18:52.323Z,3.50
2022-11-13T13:19:56.533Z,5.00
2022-11-13T13:21:00.345Z,5.00
2022-11-13T13:22:03.813Z,5.00
2022-11-13T13:23:08.838Z,6.00
2022-11-13T13:24:12.429Z,5.00
2022-11-13T13:25:16.249Z,3.50
2022-11-13T13:26:20.833Z,4.50
2022-11-13T13:27:24.533Z,5.00
2022-11-13T13:28:28.802Z,5.50
2022-11-13T13:29:34.074Z,5.50
2022-11-13T13:30:37.664Z,5.00
2022-11-13T13:31:41.464Z,5.00
2022-11-13T13:32:45.253Z,5.00
2022-11-13T13:33:49.634Z,5.00
2022-11-13T13:34:53.373Z,5.00
2022-11-13T13:35:58.089Z,4.50
2022-11-13T13:37:01.971Z,4.00
2022-11-13T13:38:07.160Z,3.50
2022-11-13T13:39:11.003Z,4.00
2022-11-13T13:40:14.606Z,5.00
2022-11-13T13:41:18.707Z,5.50
2022-11-13T13:42:25.574Z,5.50
2022-11-13T13:43:29.675Z,4.75
2022-11-13T13:44:33.461Z,3.50
2022-11-13T13:45:37.471Z,5.00
2022-11-13T13:46:41.459Z,5.50
2022-11-13T13:47:45.384Z,4.50
2022-11-13T13:48:48.778Z,4.50
2022-11-13T13:49:53.696Z,6.00
2022-11-13T13:50:57.672Z,5.50
2022-11-13T13:52:01.306Z,4.50
2022-11-13T13:53:05.125Z,4.25
2022-11-13T13:54:09.069Z,5.00
2022-11-13T13:55:12.772Z,4.50
2022-11-13T13:56:18.089Z,4.50
2022-11-13T13:57:21.473Z,4.50
2022-11-13T13:58:25.374Z,4.25
2022-11-13T13:59:28.885Z,4.00
2022-11-13T14:00:33.372Z,4.00
2022-11-13T14:01:36.915Z,4.25
2022-11-13T14:02:40.348Z,4.00
2022-11-13T14:03:46.302Z,4.00
2022-11-13T14:04:50.088Z,4.00
2022-11-13T14:05:55.122Z,4.50
2022-11-13T14:06:58.128Z,3.25
2022-11-13T14:08:02.005Z,2.50
2022-11-13T14:09:05.684Z,2.50
2022-11-13T14:10:09.138Z,3.50
2022-11-13T14:11:12.777Z,3.50
2022-11-13T14:12:16.566Z,3.50
2022-11-13T14:13:20.162Z,3.50
2022-11-13T14:14:23.654Z,4.00
2022-11-13T14:15:27.371Z,4.00
2022-11-13T14:16:30.929Z,5.00
2022-11-13T14:17:34.729Z,4.00
2022-11-13T14:18:38.318Z,2.75
2022-11-13T14:19:42.121Z,2.50
2022-11-13T14:20:45.853Z,2.00
2022-11-13T14:21:49.617Z,2.50
2022-11-13T14:22:56.869Z,3.50
2022-11-13T14:23:59.378Z,4.00
2022-11-13T14:25:08.077Z,2.50
2022-11-13T14:26:11.859Z,2.50
2022-11-13T14:27:24.058Z,3.50
2022-11-13T14:28:28.678Z,4.00
2022-11-13T14:29:33.791Z,4.50
2022-11-13T14:30:37.483Z,5.00
2022-11-13T14:31:40.987Z,4.75
2022-11-13T14:32:51.201Z,4.00
2022-11-13T14:33:55.121Z,4.50
2022-11-13T14:34:58.708Z,5.00
2022-11-13T14:36:02.007Z,5.50
2022-11-13T14:37:05.505Z,6.00
2022-11-13T14:38:12.183Z,6.00
2022-11-13T14:39:17.071Z,5.00
2022-11-13T14:40:20.358Z,4.50
2022-11-13T14:41:24.055Z,1.50
2022-11-13T14:42:27.539Z,1.50
2022-11-13T14:43:31.504Z,1.50
2022-11-13T14:44:38.412Z,2.00
2022-11-13T14:45:41.654Z,2.00
2022-11-13T14:46:45.185Z,1.00
2022-11-13T14:47:49.212Z,1.50
2022-11-13T14:48:52.364Z,1.50
2022-11-13T14:49:56.155Z,1.00
2022-11-13T14:50:59.355Z,1.50
2022-11-13T14:52:03.251Z,1.20
2022-11-13T14:53:06.735Z,1.25
2022-11-13T14:54:10.315Z,1.00
2022-11-13T14:55:15.594Z,1.00
2022-11-13T14:56:19.356Z,1.00
2022-11-13T14:57:23.057Z,0.25
2022-11-13T14:58:26.755Z,0.50
2022-11-13T14:59:30.331Z,0.50
2022-11-13T15:00:33.930Z,1.00
2022-11-13T15:01:37.514Z,1.00
2022-11-13T15:02:41.212Z,1.00
2022-11-13T15:03:44.887Z,0.75
2022-11-13T15:04:48.182Z,1.00
2022-11-13T15:05:51.472Z,1.00
2022-11-13T15:06:55.680Z,1.00
2022-11-13T15:07:59.570Z,1.00
2022-11-13T15:09:03.170Z,1.00
2022-11-13T15:10:06.547Z,1.00
2022-11-13T15:11:10.030Z,1.00
2022-11-13T15:12:13.732Z,1.00
2022-11-13T15:13:17.323Z,1.00
2022-11-13T15:14:20.812Z,1.00
2022-11-13T15:15:24.515Z,1.00
2022-11-13T15:16:28.208Z,1.00
2022-11-13T15:17:32.207Z,0.25
2022-11-13T15:18:35.903Z,0.50
2022-11-13T15:19:39.584Z,1.00
2022-11-13T15:20:42.796Z,1.00
2022-11-13T15:22:05.662Z,1.00
2022-11-13T15:22:51.617Z,1.00
2022-11-13T15:23:55.185Z,1.00
2022-11-13T15:24:58.650Z,1.00
2022-11-13T15:26:01.759Z,1.00
2022-11-13T15:27:05.565Z,1.00
2022-11-13T15:28:09.574Z,1.00
2022-11-13T15:29:13.352Z,1.00
2022-11-13T15:30:16.641Z,1.00
2022-11-13T15:31:20.131Z,1.00
2022-11-13T15:32:23.405Z,1.00
2022-11-13T15:33:27.579Z,1.00
2022-11-13T15:34:34.598Z,1.00
2022-11-13T15:35:38.270Z,1.00
2022-11-13T15:36:41.772Z,0.50
2022-11-13T15:37:45.391Z,0.50
2022-11-13T15:38:48.733Z,1.00
2022-11-13T15:39:52.749Z,1.00
2022-11-13T15:40:56.636Z,1.00
2022-11-13T15:42:01.065Z,0.50
2022-11-13T15:43:05.880Z,1.00
2022-11-13T15:44:10.273Z,0.50
2022-11-13T15:45:15.423Z,0.75
2022-11-13T15:46:19.721Z,0.50
2022-11-13T15:47:23.426Z,1.00
2022-11-13T15:48:26.800Z,1.00
2022-11-13T15:49:31.515Z,1.50
2022-11-13T15:50:35.108Z,1.00
2022-11-13T15:51:39.521Z,0.50
2022-11-13T15:52:43.362Z,0.25
2022-11-13T15:53:46.828Z,0.00
2022-11-13T15:54:50.508Z,0.50
2022-11-13T15:55:57.572Z,0.50
2022-11-13T15:57:00.768Z,0.00
2022-11-13T15:58:05.795Z,0.50
2022-11-13T15:59:09.570Z,0.25
2022-11-13T16:00:13.363Z,0.00
2022-11-13T16:01:17.419Z,1.00
2022-11-13T16:02:21.806Z,0.50
2022-11-13T16:03:26.211Z,0.00
2022-11-13T16:04:50.553Z,0.50
2022-11-13T16:05:35.127Z,1.00
2022-11-13T16:06:38.433Z,1.00
2022-11-13T16:07:43.234Z,0.75
2022-11-13T16:08:47.216Z,0.50
2022-11-13T16:09:50.614Z,1.00
2022-11-13T16:10:54.709Z,0.50
2022-11-13T16:11:58.819Z,0.50
2022-11-13T16:13:02.310Z,0.25
2022-11-13T16:14:06.116Z,0.00
2022-11-13T16:15:10.009Z,0.25
2022-11-13T16:16:14.134Z,0.00
2022-11-13T16:17:18.000Z,0.75
2022-11-13T16:18:22.725Z,1.00
2022-11-13T16:19:27.332Z,0.50
2022-11-13T16:20:37.892Z,0.25
2022-11-13T16:21:41.291Z,0.50
2022-11-13T16:22:46.711Z,1.00
2022-11-13T16:23:50.014Z,1.00
2022-11-13T16:24:56.448Z,1.00
2022-11-13T16:26:01.247Z,1.00
2022-11-13T16:27:05.890Z,1.00
2022-11-13T16:28:10.919Z,1.00
2022-11-13T16:29:14.815Z,1.00
2022-11-13T16:30:18.204Z,2.00
2022-11-13T16:31:21.587Z,2.50
2022-11-13T16:32:24.867Z,1.00
2022-11-13T16:33:29.084Z,1.50
2022-11-13T16:34:32.771Z,0.75
2022-11-13T16:35:36.261Z,1.00
2022-11-13T16:36:39.753Z,0.50
2022-11-13T16:37:43.033Z,1.00
2022-11-13T16:38:46.268Z,0.50
2022-11-13T16:39:49.406Z,0.50
2022-11-13T16:40:52.887Z,0.50
2022-11-13T16:41:56.429Z,1.00
2022-11-13T16:43:00.071Z,1.00
2022-11-13T16:44:03.314Z,0.25
2022-11-13T16:45:06.741Z,0.00
2022-11-13T16:46:10.844Z,0.50
2022-11-13T16:47:14.226Z,0.25
2022-11-13T16:48:17.512Z,0.00
2022-11-13T16:49:20.927Z,0.50
2022-11-13T16:50:24.364Z,0.25
2022-11-13T16:51:29.423Z,0.00
2022-11-13T16:52:32.904Z,0.00
2022-11-13T16:53:36.699Z,0.00
2022-11-13T16:54:40.192Z,0.00
2022-11-13T16:55:43.675Z,0.00
2022-11-13T16:56:47.368Z,0.00
2022-11-13T16:57:51.485Z,0.00
2022-11-13T16:58:54.962Z,0.50
2022-11-13T16:59:58.349Z,0.50
2022-11-13T17:01:01.920Z,0.50
2022-11-13T17:02:05.221Z,0.00
2022-11-13T17:03:08.518Z,0.00
2022-11-13T17:04:12.011Z,0.50
2022-11-13T17:05:15.379Z,0.50
2022-11-13T17:06:19.595Z,0.50
2022-11-13T17:07:23.040Z,0.50
2022-11-13T17:08:26.330Z,0.00
2022-11-13T17:09:29.648Z,0.00
2022-11-13T17:10:33.319Z,0.00
2022-11-13T17:11:37.145Z,0.50
2022-11-13T17:12:40.534Z,0.50
2022-11-13T17:13:44.013Z,1.00
2022-11-13T17:14:47.715Z,0.50
2022-11-13T17:15:51.404Z,0.50
2022-11-13T17:16:54.990Z,0.50
2022-11-13T17:17:58.447Z,0.50
2022-11-13T17:19:02.274Z,0.50
2022-11-13T17:20:05.769Z,1.00
2022-11-13T17:21:09.148Z,1.00
2022-11-13T17:22:12.432Z,1.00
2022-11-13T17:23:15.965Z,0.00
2022-11-13T17:24:19.209Z,0.50
2022-11-13T17:25:22.698Z,1.00
2022-11-13T17:26:26.084Z,1.00
2022-11-13T17:27:29.346Z,1.00
2022-11-13T17:28:32.585Z,1.00
2022-11-13T17:29:36.142Z,1.00
2022-11-13T17:30:39.436Z,1.50
2022-11-13T17:31:42.810Z,2.60
2022-11-13T17:32:46.113Z,2.20
2022-11-13T17:33:49.490Z,2.50
2022-11-13T17:34:52.678Z,3.00
2022-11-13T17:35:55.986Z,3.50
2022-11-13T17:36:59.287Z,3.00
2022-11-13T17:38:02.524Z,2.50
2022-11-13T17:39:05.803Z,3.00
2022-11-13T17:40:09.210Z,3.25
2022-11-13T17:41:12.576Z,1.50
2022-11-13T17:42:16.171Z,0.25
2022-11-13T17:43:19.661Z,1.50
2022-11-13T17:44:22.819Z,1.75
2022-11-13T17:45:26.223Z,2.00
2022-11-13T17:46:29.511Z,1.50
2022-11-13T17:47:32.791Z,1.00
2022-11-13T17:48:36.084Z,1.00
2022-11-13T17:49:39.561Z,1.00
2022-11-13T17:50:42.625Z,1.75
2022-11-13T17:51:46.131Z,1.00
2022-11-13T17:52:49.625Z,1.50
2022-11-13T17:53:53.022Z,1.50